Time;durP1;ratioP1;P1;durP2;ratioP2;P2;SDS_P1;SDS_P2;PMS_P1;PMS_P2;Temp;Humidity;BMP_temperature;BMP_pressure;BME280_temperature;BME280_humidity;BME280_pressure;Samples;Min_cycle;Max_cycle;Signal;HPM_P1;HPM_P2
2022/10/13 00:01:15;;;;;;;19.40;10.38;;;9.90;99.90;;;;;;4934575;29;20039;-83
2022/10/13 00:03:45;;;;;;;16.17;10.07;;;9.90;99.90;;;;;;4915184;29;20050;-83
2022/10/13 00:06:10;;;;;;;19.20;11.05;;;9.90;99.90;;;;;;4936464;29;20035;-83
2022/10/13 00:08:37;;;;;;;19.13;11.32;;;9.90;99.90;;;;;;4933218;29;20039;-83
2022/10/13 00:11:10;;;;;;;24.10;11.35;;;9.90;99.90;;;;;;4950091;28;20058;-84
2022/10/13 00:13:35;;;;;;;20.63;10.85;;;9.90;99.90;;;;;;4932655;29;20693;-83
2022/10/13 00:16:02;;;;;;;22.02;11.30;;;9.90;99.90;;;;;;4920366;29;20047;-83
2022/10/13 00:18:27;;;;;;;17.48;10.98;;;9.90;99.90;;;;;;4952687;28;20038;-83
2022/10/13 00:20:53;;;;;;;18.90;11.20;;;9.90;99.90;;;;;;4904787;29;20039;-84
2022/10/13 00:23:19;;;;;;;27.83;10.63;;;9.90;99.90;;;;;;4937405;29;20058;-83
2022/10/13 00:25:47;;;;;;;20.45;11.18;;;9.90;99.90;;;;;;4918828;29;20038;-83
2022/10/13 00:28:15;;;;;;;25.20;11.70;;;9.90;99.90;;;;;;4917984;29;20051;-83
2022/10/13 00:30:41;;;;;;;18.08;10.65;;;9.90;99.90;;;;;;4932794;29;20065;-83
2022/10/13 00:33:08;;;;;;;20.27;12.02;;;9.90;99.90;;;;;;4901333;29;20492;-83
2022/10/13 00:35:38;;;;;;;19.95;10.57;;;9.90;99.90;;;;;;4900183;29;20043;-83
2022/10/13 00:38:04;;;;;;;20.13;12.50;;;9.90;99.90;;;;;;4900214;29;20036;-83
2022/10/13 00:40:29;;;;;;;19.73;10.73;;;9.90;99.90;;;;;;4907206;29;20182;-84
2022/10/13 00:42:58;;;;;;;17.63;11.05;;;9.90;99.90;;;;;;4953014;28;20518;-83
2022/10/13 00:45:27;;;;;;;23.08;12.00;;;9.90;99.90;;;;;;4930274;29;20042;-83
2022/10/13 00:48:00;;;;;;;22.95;13.88;;;9.90;99.90;;;;;;4915317;29;20087;-84
2022/10/13 00:50:35;;;;;;;20.02;12.82;;;9.90;99.90;;;;;;4903251;29;20039;-83
2022/10/13 00:53:01;;;;;;;24.02;15.30;;;9.90;99.90;;;;;;4934801;29;20036;-83
2022/10/13 00:55:31;;;;;;;24.60;14.68;;;9.90;99.90;;;;;;4918462;29;20059;-84
2022/10/13 00:58:00;;;;;;;26.25;14.70;;;10.00;99.90;;;;;;4947809;28;20504;-83
2022/10/13 01:00:27;;;;;;;27.42;14.35;;;10.00;99.90;;;;;;4916819;29;20032;-83
2022/10/13 01:02:52;;;;;;;24.02;15.85;;;10.00;99.90;;;;;;4917077;29;20058;-83
2022/10/13 01:05:20;;;;;;;23.38;13.65;;;10.00;99.90;;;;;;4919386;29;20066;-83
2022/10/13 01:07:48;;;;;;;25.77;14.02;;;10.00;99.90;;;;;;4932998;29;20039;-83
2022/10/13 01:10:23;;;;;;;20.45;13.65;;;10.00;99.90;;;;;;4949670;28;20039;-83
2022/10/13 01:13:10;;;;;;;22.92;13.35;;;10.00;99.90;;;;;;4935407;29;21203;-83
2022/10/13 01:15:43;;;;;;;23.63;14.07;;;10.10;99.90;;;;;;4907495;29;20122;-83
2022/10/13 01:18:47;;;;;;;21.80;12.73;;;10.00;99.90;;;;;;4947415;28;20119;-84
2022/10/13 01:21:12;;;;;;;22.40;13.20;;;10.10;99.90;;;;;;4918935;29;20534;-83
2022/10/13 01:23:49;;;;;;;23.20;13.27;;;10.10;99.90;;;;;;4945257;28;20072;-84
2022/10/13 01:26:36;;;;;;;21.33;13.95;;;10.10;99.90;;;;;;4933783;29;20103;-83
2022/10/13 01:29:09;;;;;;;22.55;12.68;;;10.00;99.90;;;;;;4951219;28;20090;-83
2022/10/13 01:32:00;;;;;;;20.45;12.20;;;10.10;99.90;;;;;;4932995;29;20582;-83
2022/10/13 01:34:39;;;;;;;22.08;13.20;;;10.10;99.90;;;;;;4904969;29;20040;-83
2022/10/13 01:37:29;;;;;;;20.27;12.77;;;10.00;99.90;;;;;;4930481;29;20114;-83
2022/10/13 01:40:23;;;;;;;21.88;11.60;;;10.00;99.90;;;;;;4917756;29;20039;-84
2022/10/13 01:42:55;;;;;;;20.92;11.68;;;10.00;99.90;;;;;;4895252;29;20419;-83
2022/10/13 01:45:27;;;;;;;23.40;12.30;;;10.00;99.90;;;;;;4951305;28;20043;-84
2022/10/13 01:47:54;;;;;;;20.77;12.38;;;10.00;99.90;;;;;;4949362;28;20423;-83
2022/10/13 01:50:20;;;;;;;18.15;11.82;;;10.10;99.90;;;;;;4923039;29;20348;-83
2022/10/13 01:52:47;;;;;;;26.30;12.80;;;10.00;99.90;;;;;;4901786;29;20044;-83
2022/10/13 01:55:13;;;;;;;24.23;12.38;;;10.00;99.90;;;;;;4897726;29;20043;-83
2022/10/13 01:57:41;;;;;;;23.25;13.05;;;10.00;99.90;;;;;;4916720;29;21022;-83
2022/10/13 02:00:21;;;;;;;22.50;11.98;;;9.90;99.90;;;;;;4914315;29;20047;-84
2022/10/13 02:02:53;;;;;;;18.00;12.43;;;10.00;99.90;;;;;;4934193;29;20119;-83
2022/10/13 02:05:42;;;;;;;20.75;11.15;;;10.00;99.90;;;;;;4950373;28;20047;-83
2022/10/13 02:08:41;;;;;;;23.42;12.25;;;10.00;99.90;;;;;;4943548;28;20143;-83
2022/10/13 02:11:14;;;;;;;20.05;11.52;;;10.00;99.90;;;;;;4950412;28;20078;-83
2022/10/13 02:13:58;;;;;;;18.92;10.95;;;10.00;99.90;;;;;;4950221;28;20043;-83
2022/10/13 02:16:27;;;;;;;16.75;11.23;;;10.00;99.90;;;;;;4913343;29;20504;-83
2022/10/13 02:18:56;;;;;;;17.33;11.98;;;10.00;99.90;;;;;;4904143;29;20135;-83
2022/10/13 02:21:21;;;;;;;22.80;12.75;;;10.00;99.90;;;;;;4935525;29;20047;-83
2022/10/13 02:23:47;;;;;;;18.73;11.85;;;10.00;99.90;;;;;;4950950;28;20047;-83
2022/10/13 02:26:13;;;;;;;19.67;12.38;;;10.00;99.90;;;;;;4914550;29;20574;-83
2022/10/13 02:28:39;;;;;;;19.08;12.75;;;10.00;99.90;;;;;;4945826;28;20039;-83
2022/10/13 02:31:07;;;;;;;17.23;11.50;;;10.00;99.90;;;;;;4901615;29;20047;-83
2022/10/13 02:33:33;;;;;;;18.83;12.52;;;10.00;99.90;;;;;;4930884;29;20514;-83
2022/10/13 02:35:58;;;;;;;22.27;12.77;;;10.00;99.90;;;;;;4928481;29;20032;-84
2022/10/13 02:38:24;;;;;;;17.50;12.95;;;10.00;99.90;;;;;;4930593;29;20087;-83
2022/10/13 02:40:50;;;;;;;16.25;11.13;;;10.00;99.90;;;;;;4899913;29;20046;-83
2022/10/13 02:43:15;;;;;;;26.13;13.82;;;10.00;99.90;;;;;;4945584;28;20409;-83
2022/10/13 02:45:41;;;;;;;20.83;12.15;;;9.90;99.90;;;;;;4930729;29;20047;-83
2022/10/13 02:48:07;;;;;;;18.80;11.48;;;10.00;99.90;;;;;;4918396;29;20088;-83
2022/10/13 02:50:32;;;;;;;18.73;12.50;;;10.00;99.90;;;;;;4918158;29;20043;-83
2022/10/13 02:52:58;;;;;;;17.52;12.18;;;10.00;99.90;;;;;;4912793;29;20047;-83
2022/10/13 02:55:23;;;;;;;19.48;11.35;;;10.00;99.90;;;;;;4929217;29;20040;-83
2022/10/13 02:57:49;;;;;;;25.90;12.73;;;10.00;99.90;;;;;;4928272;29;20210;-84
2022/10/13 03:00:15;;;;;;;18.60;11.98;;;10.10;99.90;;;;;;4914430;29;20550;-83
2022/10/13 03:02:41;;;;;;;18.42;11.35;;;10.00;99.90;;;;;;4953746;28;21381;-83
2022/10/13 03:05:08;;;;;;;18.48;12.07;;;10.00;99.90;;;;;;4904397;29;20040;-83
2022/10/13 03:07:33;;;;;;;20.17;12.25;;;10.00;99.90;;;;;;4932333;29;20043;-83
2022/10/13 03:10:00;;;;;;;20.45;12.77;;;10.00;99.90;;;;;;4936458;29;21337;-83
2022/10/13 03:12:26;;;;;;;18.58;12.38;;;10.10;99.90;;;;;;4950693;28;20170;-84
2022/10/13 03:14:51;;;;;;;25.00;13.85;;;10.00;99.90;;;;;;4905047;29;20645;-83
2022/10/13 03:17:17;;;;;;;18.88;14.13;;;10.00;99.90;;;;;;4918284;29;20043;-83
2022/10/13 03:19:42;;;;;;;19.00;12.43;;;10.10;99.90;;;;;;4911942;29;20039;-83
2022/10/13 03:22:08;;;;;;;20.83;12.70;;;10.10;99.90;;;;;;4931503;29;20073;-83
2022/10/13 03:24:33;;;;;;;19.13;13.43;;;10.10;99.90;;;;;;4951001;28;20491;-83
2022/10/13 03:26:59;;;;;;;21.77;13.60;;;10.10;99.90;;;;;;4950518;28;20043;-84
2022/10/13 03:29:24;;;;;;;24.38;13.73;;;10.10;99.90;;;;;;4919685;29;20040;-83
2022/10/13 03:31:50;;;;;;;23.95;14.00;;;10.00;99.90;;;;;;4919357;29;20043;-83
2022/10/13 03:34:16;;;;;;;21.42;14.52;;;10.10;99.90;;;;;;4949965;28;20079;-83
2022/10/13 03:36:41;;;;;;;24.35;13.60;;;10.00;99.90;;;;;;4950029;28;20043;-83
2022/10/13 03:39:07;;;;;;;20.08;13.40;;;10.10;99.90;;;;;;4947989;28;20050;-84
2022/10/13 03:41:33;;;;;;;21.17;13.57;;;10.10;99.90;;;;;;4902376;29;20035;-83
2022/10/13 03:43:58;;;;;;;19.70;14.43;;;10.10;99.90;;;;;;4903241;29;20035;-83
2022/10/13 03:46:27;;;;;;;22.92;13.95;;;10.10;99.90;;;;;;4914327;29;20043;-83
2022/10/13 03:48:53;;;;;;;20.25;14.10;;;10.10;99.90;;;;;;4916029;29;20091;-83
2022/10/13 03:51:20;;;;;;;22.80;13.80;;;10.10;99.90;;;;;;4916629;29;20036;-83
2022/10/13 03:53:47;;;;;;;19.65;13.57;;;10.10;99.90;;;;;;4949811;28;20110;-83
2022/10/13 03:56:20;;;;;;;26.23;15.18;;;10.10;99.90;;;;;;4919536;29;20567;-83
2022/10/13 03:58:45;;;;;;;21.77;14.48;;;10.10;99.90;;;;;;4929796;29;20731;-83
2022/10/13 04:01:13;;;;;;;20.83;14.85;;;10.10;99.90;;;;;;4946026;28;20042;-83
2022/10/13 04:03:38;;;;;;;21.75;14.18;;;10.20;99.90;;;;;;4929890;29;20044;-82
2022/10/13 04:06:05;;;;;;;26.88;14.60;;;10.20;99.90;;;;;;4928535;29;20051;-82
2022/10/13 04:08:32;;;;;;;19.58;14.25;;;10.10;99.90;;;;;;4916601;29;20040;-82
2022/10/13 04:11:03;;;;;;;22.90;15.57;;;10.10;99.90;;;;;;4947201;28;20047;-82
2022/10/13 04:13:29;;;;;;;23.95;15.38;;;10.10;99.90;;;;;;4946076;28;20038;-83
2022/10/13 04:15:55;;;;;;;25.25;15.18;;;10.10;99.90;;;;;;4941643;28;20122;-83
2022/10/13 04:18:20;;;;;;;26.35;15.48;;;10.10;99.90;;;;;;4929061;29;20404;-83
2022/10/13 04:20:46;;;;;;;27.65;15.85;;;10.10;99.90;;;;;;4902461;29;20476;-83
2022/10/13 04:23:11;;;;;;;24.88;15.07;;;10.20;99.90;;;;;;4927071;29;20094;-82
2022/10/13 04:25:38;;;;;;;27.60;16.13;;;10.20;99.90;;;;;;4912245;29;20625;-83
2022/10/13 04:28:05;;;;;;;28.67;15.80;;;10.20;99.90;;;;;;4924093;29;20130;-84
2022/10/13 04:30:34;;;;;;;23.40;15.93;;;10.20;99.90;;;;;;4937301;28;20032;-83
2022/10/13 04:33:00;;;;;;;30.92;16.83;;;10.20;99.90;;;;;;4944375;28;20465;-83
2022/10/13 04:35:26;;;;;;;29.92;17.80;;;10.20;99.90;;;;;;4927233;29;20043;-83
2022/10/13 04:37:56;;;;;;;24.75;17.10;;;10.20;99.90;;;;;;4943687;28;20476;-84
2022/10/13 04:40:23;;;;;;;30.40;17.52;;;10.20;99.90;;;;;;4927975;29;20060;-85
2022/10/13 04:42:49;;;;;;;21.85;16.50;;;10.10;99.90;;;;;;4929375;29;20115;-85
2022/10/13 04:45:18;;;;;;;25.40;17.45;;;10.20;99.90;;;;;;4951343;28;20047;-85
2022/10/13 04:47:44;;;;;;;31.98;18.48;;;10.40;99.90;;;;;;4913123;29;20044;-84
2022/10/13 04:50:09;;;;;;;24.20;16.70;;;10.20;99.90;;;;;;4912866;29;20044;-85
2022/10/13 04:52:35;;;;;;;28.02;17.95;;;10.20;99.90;;;;;;4910251;29;20039;-84
2022/10/13 04:55:01;;;;;;;31.65;20.77;;;10.20;99.90;;;;;;4917101;29;20043;-85
2022/10/13 04:57:27;;;;;;;26.67;18.75;;;10.20;99.90;;;;;;4909003;29;20066;-84
2022/10/13 04:59:52;;;;;;;28.42;19.20;;;10.20;99.90;;;;;;4897027;29;20039;-84
2022/10/13 05:02:18;;;;;;;27.77;18.67;;;10.20;99.90;;;;;;4943525;28;20128;-83
2022/10/13 05:04:44;;;;;;;27.67;19.10;;;10.20;99.90;;;;;;4895605;29;20039;-84
2022/10/13 05:07:09;;;;;;;28.75;19.52;;;10.30;99.90;;;;;;4926406;29;20074;-85
2022/10/13 05:09:35;;;;;;;32.42;20.90;;;10.30;99.90;;;;;;4893426;29;20043;-83
2022/10/13 05:12:01;;;;;;;29.00;20.23;;;10.30;99.90;;;;;;4944151;28;20055;-84
2022/10/13 05:14:26;;;;;;;31.75;20.10;;;10.30;99.90;;;;;;4914494;29;20044;-85
2022/10/13 05:16:52;;;;;;;31.95;21.42;;;10.30;99.90;;;;;;4915148;29;20043;-84
2022/10/13 05:19:17;;;;;;;31.88;20.05;;;10.30;99.90;;;;;;4909784;29;20069;-84
2022/10/13 05:21:43;;;;;;;31.95;19.73;;;10.30;99.90;;;;;;4947023;28;20067;-85
2022/10/13 05:24:12;;;;;;;29.70;19.85;;;10.30;99.90;;;;;;4912339;29;20036;-86
2022/10/13 05:26:38;;;;;;;27.52;19.33;;;10.30;99.90;;;;;;4912203;29;20073;-82
2022/10/13 05:29:04;;;;;;;28.70;20.15;;;10.30;99.90;;;;;;4928487;29;20075;-83
2022/10/13 05:31:31;;;;;;;29.45;19.90;;;10.30;99.90;;;;;;4929986;29;20173;-84
2022/10/13 05:33:57;;;;;;;28.95;20.02;;;10.30;99.90;;;;;;4925258;29;20078;-84
2022/10/13 05:36:25;;;;;;;33.95;20.70;;;10.30;99.90;;;;;;4944332;28;20122;-83
2022/10/13 05:38:53;;;;;;;29.30;19.85;;;10.30;99.90;;;;;;4940926;28;20068;-84
2022/10/13 05:41:22;;;;;;;24.27;16.88;;;10.30;99.90;;;;;;4902756;29;20043;-86
2022/10/13 05:43:52;;;;;;;31.13;19.95;;;10.40;99.90;;;;;;4915385;29;20048;-86
2022/10/13 05:46:17;;;;;;;28.55;19.92;;;10.30;99.90;;;;;;4922182;29;21831;-87
2022/10/13 05:48:43;;;;;;;25.08;19.42;;;10.50;99.90;;;;;;4929456;29;20055;-86
2022/10/13 05:51:14;;;;;;;33.97;21.20;;;10.50;99.90;;;;;;4926149;29;20042;-83
2022/10/13 05:53:46;;;;;;;32.90;19.48;;;10.40;99.90;;;;;;4937093;28;20040;-85
2022/10/13 05:56:16;;;;;;;31.10;18.73;;;10.50;99.90;;;;;;4939864;28;20138;-85
2022/10/13 05:58:46;;;;;;;28.45;19.33;;;10.50;99.90;;;;;;4909850;29;20039;-86
2022/10/13 06:01:17;;;;;;;29.30;19.70;;;10.50;99.90;;;;;;4910904;29;20842;-86
2022/10/13 06:03:45;;;;;;;25.55;19.98;;;10.50;99.90;;;;;;4901430;29;20046;-84
2022/10/13 06:06:10;;;;;;;40.22;21.40;;;10.50;99.90;;;;;;4897968;29;20524;-85
2022/10/13 06:08:37;;;;;;;33.05;21.15;;;10.50;99.90;;;;;;4898676;29;20068;-85
2022/10/13 06:11:04;;;;;;;34.35;19.60;;;10.50;99.90;;;;;;4903246;29;20075;-85
2022/10/13 06:13:30;;;;;;;34.03;19.40;;;10.50;99.90;;;;;;4896940;29;20058;-86
2022/10/13 06:15:55;;;;;;;35.08;20.88;;;10.50;99.90;;;;;;4899190;29;20044;-85
2022/10/13 06:18:21;;;;;;;29.30;19.75;;;10.50;99.90;;;;;;4917700;29;20040;-85
2022/10/13 06:20:47;;;;;;;25.33;19.08;;;10.60;99.90;;;;;;4903684;29;20032;-86
2022/10/13 06:23:12;;;;;;;26.13;19.25;;;10.60;99.90;;;;;;4904719;29;20088;-86
2022/10/13 06:25:56;;;;;;;25.73;19.08;;;10.60;99.90;;;;;;4899502;29;20171;-88
2022/10/13 06:28:29;;;;;;;25.70;19.88;;;10.60;99.90;;;;;;4899500;29;20138;-87
2022/10/13 06:30:55;;;;;;;31.65;21.73;;;10.60;99.90;;;;;;4874342;29;20111;-87
2022/10/13 06:33:26;;;;;;;31.15;20.05;;;10.60;99.90;;;;;;4895056;29;20052;-87
2022/10/13 06:35:54;;;;;;;26.63;18.83;;;10.70;99.90;;;;;;4902466;29;20079;-86
2022/10/13 06:38:35;;;;;;;30.60;20.45;;;10.90;99.90;;;;;;4887101;29;20729;-87
2022/10/13 06:41:04;;;;;;;30.08;19.67;;;10.70;99.90;;;;;;4897015;29;20080;-85
2022/10/13 06:43:54;;;;;;;27.17;18.83;;;10.70;99.90;;;;;;4911556;29;20046;-87
2022/10/13 06:46:26;;;;;;;30.05;19.13;;;10.70;99.90;;;;;;4876559;29;20142;-87
2022/10/13 06:49:31;;;;;;;30.65;18.85;;;11.00;99.90;;;;;;4887750;29;20055;-87
2022/10/13 06:51:58;;;;;;;27.73;18.45;;;10.80;99.90;;;;;;4910364;29;20051;-86
2022/10/13 06:54:24;;;;;;;31.83;19.25;;;11.40;99.90;;;;;;4894626;29;20051;-88
2022/10/13 06:56:50;;;;;;;30.38;20.35;;;10.80;99.90;;;;;;4900551;29;20071;-87
2022/10/13 06:59:22;;;;;;;33.13;20.05;;;10.80;99.90;;;;;;4915704;29;20635;-86
2022/10/13 07:01:50;;;;;;;31.15;19.92;;;10.80;99.90;;;;;;4911824;29;20056;-86
2022/10/13 07:04:54;;;;;;;29.48;19.45;;;10.80;99.90;;;;;;4897399;29;20074;-86
2022/10/13 07:07:21;;;;;;;29.02;20.00;;;11.00;99.90;;;;;;4908505;29;20098;-86
2022/10/13 07:09:52;;;;;;;31.10;19.02;;;10.80;99.90;;;;;;4911640;29;20742;-85
2022/10/13 07:12:19;;;;;;;29.42;19.10;;;10.80;99.90;;;;;;4883042;29;20043;-87
2022/10/13 07:14:45;;;;;;;28.85;19.88;;;10.80;99.90;;;;;;4881644;29;20091;-86
2022/10/13 07:17:10;;;;;;;26.73;18.88;;;10.90;99.90;;;;;;4924248;29;20249;-87
2022/10/13 07:19:36;;;;;;;29.08;19.52;;;10.90;99.90;;;;;;4881029;29;20092;-86
2022/10/13 07:22:06;;;;;;;33.45;21.25;;;10.90;99.90;;;;;;4945720;28;20479;-86
2022/10/13 07:24:37;;;;;;;30.05;18.05;;;10.80;99.90;;;;;;4897042;29;20052;-87
2022/10/13 07:27:05;;;;;;;29.40;18.55;;;11.60;99.90;;;;;;4930102;28;20586;-87
2022/10/13 07:29:31;;;;;;;31.27;18.75;;;10.80;99.90;;;;;;4898349;29;20043;-87
2022/10/13 07:31:56;;;;;;;29.05;18.92;;;11.20;99.90;;;;;;4916918;29;20051;-85
2022/10/13 07:34:22;;;;;;;29.25;19.92;;;11.00;99.90;;;;;;4907314;29;20138;-87
2022/10/13 07:36:48;;;;;;;28.08;18.98;;;11.10;99.90;;;;;;4922785;29;20046;-86
2022/10/13 07:39:13;;;;;;;27.40;19.90;;;11.10;99.90;;;;;;4918316;29;20130;-87
2022/10/13 07:41:40;;;;;;;29.70;19.20;;;11.10;99.90;;;;;;4902977;29;20048;-87
2022/10/13 07:44:05;;;;;;;28.08;19.10;;;11.10;99.90;;;;;;4938449;28;20032;-86
2022/10/13 07:46:31;;;;;;;29.08;19.02;;;11.20;99.90;;;;;;4917835;29;20090;-86
2022/10/13 07:48:57;;;;;;;28.45;19.60;;;11.30;99.90;;;;;;4899187;29;20126;-87
2022/10/13 07:51:22;;;;;;;28.38;19.73;;;11.40;99.90;;;;;;4919837;29;20048;-86
2022/10/13 07:53:49;;;;;;;24.88;19.15;;;11.40;99.90;;;;;;4918099;29;20043;-86
2022/10/13 07:56:15;;;;;;;24.48;20.30;;;11.50;99.90;;;;;;4920061;29;20135;-85
2022/10/13 07:58:45;;;;;;;27.45;19.50;;;11.50;99.90;;;;;;4913732;29;20543;-86
2022/10/13 08:01:12;;;;;;;28.55;18.67;;;11.70;99.90;;;;;;4912580;29;20050;-85
2022/10/13 08:03:38;;;;;;;31.48;18.90;;;12.10;99.90;;;;;;4917820;29;20527;-86
2022/10/13 08:06:06;;;;;;;27.13;19.40;;;12.20;99.90;;;;;;4914565;29;20216;-87
2022/10/13 08:08:32;;;;;;;27.55;18.67;;;12.00;99.90;;;;;;4912036;29;21739;-87
2022/10/13 08:11:10;;;;;;;26.90;19.50;;;12.20;99.90;;;;;;4936750;28;20047;-86
2022/10/13 08:13:36;;;;;;;31.10;19.40;;;12.10;99.90;;;;;;4918872;29;20070;-86
2022/10/13 08:16:02;;;;;;;30.23;19.42;;;12.20;99.90;;;;;;4905022;29;20044;-86
2022/10/13 08:18:29;;;;;;;28.88;20.90;;;12.30;99.90;;;;;;4935362;28;20047;-86
2022/10/13 08:20:54;;;;;;;32.13;20.33;;;12.40;99.90;;;;;;4921787;29;20174;-87
2022/10/13 08:23:20;;;;;;;33.08;20.45;;;12.40;99.90;;;;;;4923939;29;20484;-86
2022/10/13 08:25:46;;;;;;;30.60;18.65;;;12.50;99.90;;;;;;4903225;29;20056;-86
2022/10/13 08:28:24;;;;;;;27.13;18.17;;;12.70;99.90;;;;;;4903317;29;20051;-85
2022/10/13 08:30:52;;;;;;;24.90;17.40;;;12.50;99.90;;;;;;4922018;29;20535;-87
2022/10/13 08:33:19;;;;;;;23.45;17.95;;;12.60;99.90;;;;;;4916723;29;20046;-86
2022/10/13 08:35:45;;;;;;;24.80;17.90;;;12.60;99.90;;;;;;4921035;29;20116;-86
2022/10/13 08:38:11;;;;;;;24.50;17.88;;;13.10;99.90;;;;;;4933687;28;20044;-86
2022/10/13 08:40:38;;;;;;;26.02;19.60;;;12.70;99.90;;;;;;4917688;29;20047;-86
2022/10/13 08:43:08;;;;;;;27.60;18.23;;;12.80;99.90;;;;;;4901655;29;20130;-86
2022/10/13 08:45:34;;;;;;;22.38;18.25;;;12.80;99.90;;;;;;4917249;29;20043;-86
2022/10/13 08:48:11;;;;;;;25.58;18.77;;;13.10;99.90;;;;;;4917383;29;20096;-87
2022/10/13 08:50:41;;;;;;;29.27;20.13;;;12.90;99.90;;;;;;4885869;29;20806;-85
2022/10/13 08:53:29;;;;;;;25.05;19.00;;;13.20;99.90;;;;;;4920259;29;20032;-86
2022/10/13 08:56:09;;;;;;;31.77;19.17;;;13.00;99.90;;;;;;4925634;29;20575;-87
2022/10/13 08:58:39;;;;;;;29.75;19.95;;;13.00;99.90;;;;;;4902341;29;20400;-86
2022/10/13 09:01:24;;;;;;;26.67;18.52;;;13.00;99.90;;;;;;4918995;29;20119;-87
2022/10/13 09:04:13;;;;;;;26.60;19.83;;;13.10;99.90;;;;;;4933647;28;20131;-86
2022/10/13 09:06:47;;;;;;;25.65;19.17;;;13.00;99.90;;;;;;4886500;29;20048;-87
2022/10/13 09:09:14;;;;;;;27.77;19.40;;;13.00;99.90;;;;;;4933008;28;20040;-87
2022/10/13 09:11:42;;;;;;;26.52;19.70;;;13.00;99.90;;;;;;4932173;28;20064;-87
2022/10/13 09:14:26;;;;;;;26.73;19.02;;;13.10;99.90;;;;;;4916977;29;20465;-84
2022/10/13 09:16:53;;;;;;;24.05;19.35;;;13.00;99.90;;;;;;4914529;29;20436;-86
2022/10/13 09:19:37;;;;;;;32.97;21.42;;;13.00;99.90;;;;;;4918491;29;20094;-85
2022/10/13 09:22:23;;;;;;;32.35;20.85;;;13.10;99.90;;;;;;4898775;29;20035;-86
2022/10/13 09:25:08;;;;;;;27.75;19.75;;;13.00;99.90;;;;;;4902386;29;20101;-85
2022/10/13 09:27:42;;;;;;;25.15;19.85;;;13.00;99.90;;;;;;4906366;29;20236;-85
2022/10/13 09:30:32;;;;;;;28.30;20.23;;;13.10;99.90;;;;;;4924821;28;20070;-87
2022/10/13 09:33:07;;;;;;;27.50;19.88;;;13.10;99.90;;;;;;4900923;29;20063;-85
2022/10/13 09:35:34;;;;;;;27.35;19.85;;;13.20;99.90;;;;;;4911754;29;20074;-86
2022/10/13 09:38:17;;;;;;;27.00;19.90;;;13.20;99.90;;;;;;4933544;28;21067;-86
2022/10/13 09:40:54;;;;;;;28.70;21.30;;;13.40;99.90;;;;;;4934115;28;20083;-87
2022/10/13 09:43:31;;;;;;;26.13;20.35;;;13.50;99.90;;;;;;4899710;29;20054;-84
2022/10/13 09:46:31;;;;;;;26.00;20.23;;;13.70;99.90;;;;;;4925459;28;20142;-88
2022/10/13 09:49:03;;;;;;;29.20;20.60;;;13.70;99.90;;;;;;4924289;28;20047;-88
2022/10/13 09:51:38;;;;;;;25.20;18.50;;;14.00;99.90;;;;;;4908331;29;20052;-86
2022/10/13 09:54:06;;;;;;;22.92;19.65;;;14.00;99.90;;;;;;4913127;29;20100;-86
2022/10/13 09:56:42;;;;;;;29.25;19.67;;;14.10;99.90;;;;;;4924873;28;20058;-87
2022/10/13 09:59:30;;;;;;;26.70;18.27;;;14.20;99.90;;;;;;4907343;29;20051;-86
2022/10/13 10:01:57;;;;;;;25.48;18.05;;;14.30;99.90;;;;;;4916032;29;20048;-87
2022/10/13 10:04:34;;;;;;;21.17;18.90;;;14.10;99.90;;;;;;4923151;28;20047;-85
2022/10/13 10:07:08;;;;;;;22.75;19.15;;;14.10;99.90;;;;;;4911221;29;20082;-87
2022/10/13 10:09:45;;;;;;;24.17;20.23;;;14.50;99.90;;;;;;4917283;29;20123;-86
2022/10/13 10:12:16;;;;;;;23.23;19.38;;;14.10;99.90;;;;;;4918366;29;20090;-87
2022/10/13 10:14:42;;;;;;;27.92;20.85;;;14.00;99.90;;;;;;4930190;28;20048;-87
2022/10/13 10:17:28;;;;;;;23.85;20.95;;;14.00;99.90;;;;;;4915512;29;20035;-87
2022/10/13 10:20:16;;;;;;;24.25;21.48;;;14.00;99.90;;;;;;4895065;29;20505;-88
2022/10/13 10:23:12;;;;;;;27.85;21.23;;;14.00;99.90;;;;;;4915945;29;20036;-86
2022/10/13 10:26:01;;;;;;;26.45;21.80;;;14.00;99.90;;;;;;4903031;29;20086;-83
2022/10/13 10:28:32;;;;;;;26.90;22.60;;;13.90;99.90;;;;;;4913400;29;20135;-85
2022/10/13 10:31:17;;;;;;;26.40;23.48;;;13.90;99.90;;;;;;4927838;28;20055;-86
2022/10/13 10:34:04;;;;;;;27.17;24.15;;;13.80;99.90;;;;;;4892171;29;20050;-85
2022/10/13 10:36:53;;;;;;;26.50;22.88;;;13.90;99.90;;;;;;4910996;29;20588;-86
2022/10/13 10:39:39;;;;;;;25.30;22.33;;;13.70;99.90;;;;;;4921694;29;20493;-85
2022/10/13 10:42:36;;;;;;;27.55;23.15;;;13.70;99.90;;;;;;4897917;29;20043;-86
2022/10/13 10:45:30;;;;;;;26.92;21.38;;;13.70;99.90;;;;;;4930829;28;20079;-87
2022/10/13 10:48:52;;;;;;;29.17;21.73;;;13.70;99.90;;;;;;4913141;29;20071;-86
2022/10/13 10:52:08;;;;;;;24.50;20.98;;;13.70;99.90;;;;;;4918516;29;20568;-85
2022/10/13 10:54:49;;;;;;;27.92;21.27;;;13.70;99.90;;;;;;4901089;29;20591;-87
2022/10/13 10:57:41;;;;;;;24.33;21.73;;;13.70;99.90;;;;;;4899670;29;20501;-87
2022/10/13 11:00:20;;;;;;;24.73;21.52;;;13.80;99.90;;;;;;4883209;29;20048;-88
2022/10/13 11:02:49;;;;;;;35.63;23.45;;;13.70;99.90;;;;;;4900975;29;20047;-87
2022/10/13 11:05:16;;;;;;;25.67;22.88;;;13.70;99.90;;;;;;4901093;29;20094;-87
2022/10/13 11:08:11;;;;;;;30.25;24.05;;;13.80;99.90;;;;;;4902287;29;20051;-87
2022/10/13 11:10:36;;;;;;;27.92;23.73;;;13.80;99.90;;;;;;4904367;29;20138;-86
2022/10/13 11:13:25;;;;;;;27.20;24.30;;;13.80;99.90;;;;;;4930398;28;20051;-88
2022/10/13 11:16:29;;;;;;;29.60;26.27;;;14.50;99.90;;;;;;4899122;29;20035;-85
2022/10/13 11:19:04;;;;;;;34.47;25.30;;;13.70;99.90;;;;;;4821605;29;20052;-85
2022/10/13 11:22:24;;;;;;;30.00;25.70;;;13.70;99.90;;;;;;4892081;29;20055;-86
2022/10/13 11:24:55;;;;;;;29.55;25.20;;;13.80;99.90;;;;;;4836978;29;20048;-86
2022/10/13 11:27:41;;;;;;;31.42;26.55;;;13.70;99.90;;;;;;4908811;29;20068;-85
2022/10/13 11:30:45;;;;;;;33.08;27.85;;;13.70;99.90;;;;;;4896750;29;20071;-87
2022/10/13 11:33:33;;;;;;;32.20;26.77;;;13.70;99.90;;;;;;4914920;29;20622;-84
2022/10/13 11:36:38;;;;;;;38.83;29.20;;;13.70;99.90;;;;;;4895982;29;20050;-86
2022/10/13 11:39:26;;;;;;;33.72;27.58;;;13.70;99.90;;;;;;4897395;29;20040;-86
2022/10/13 11:42:20;;;;;;;34.75;27.75;;;13.80;99.90;;;;;;4897400;29;20044;-88
2022/10/13 11:44:54;;;;;;;34.50;27.65;;;13.90;99.90;;;;;;4910060;29;20051;-86
2022/10/13 11:47:56;;;;;;;34.83;27.55;;;13.80;99.90;;;;;;4893749;29;20056;-86
2022/10/13 11:50:47;;;;;;;38.15;29.90;;;13.90;99.90;;;;;;4894422;29;20047;-86
2022/10/13 11:54:04;;;;;;;32.33;28.73;;;13.90;99.90;;;;;;4917574;29;20110;-87
2022/10/13 11:57:09;;;;;;;38.67;30.05;;;13.90;99.90;;;;;;4849307;29;20142;-85
2022/10/13 11:59:44;;;;;;;39.35;29.88;;;14.00;99.90;;;;;;4896866;29;20059;-87
2022/10/13 12:02:15;;;;;;;36.33;29.10;;;14.00;99.90;;;;;;4894729;29;20040;-88
2022/10/13 12:04:42;;;;;;;33.20;27.88;;;14.00;99.90;;;;;;4897891;29;20383;-87
2022/10/13 12:07:13;;;;;;;35.17;28.27;;;14.00;99.90;;;;;;4911220;29;20054;-87
2022/10/13 12:09:59;;;;;;;32.08;28.27;;;14.00;99.90;;;;;;4880922;29;20044;-85
2022/10/13 12:12:25;;;;;;;32.92;28.77;;;14.00;99.90;;;;;;4880359;29;20264;-87
2022/10/13 12:15:27;;;;;;;34.55;28.27;;;14.00;99.90;;;;;;4897172;29;20094;-87
2022/10/13 12:18:01;;;;;;;33.90;28.98;;;14.00;99.90;;;;;;4911219;29;20047;-87
2022/10/13 12:20:31;;;;;;;33.38;28.85;;;14.20;99.90;;;;;;4899794;29;20079;-85
2022/10/13 12:23:15;;;;;;;37.33;29.98;;;13.90;99.90;;;;;;4881559;29;20952;-86
2022/10/13 12:25:46;;;;;;;32.50;28.55;;;13.90;99.90;;;;;;4879827;29;20495;-87
2022/10/13 12:28:18;;;;;;;33.17;29.02;;;13.90;99.90;;;;;;4913393;29;20102;-86
2022/10/13 12:31:04;;;;;;;34.95;29.45;;;14.00;99.90;;;;;;4896895;29;20085;-87
2022/10/13 12:33:31;;;;;;;;;;;14.00;99.90;;;;;;4895489;29;20066;-87
2022/10/13 12:36:20;;;;;;;32.83;27.05;;;14.00;99.90;;;;;;4910306;29;20461;-86
2022/10/13 12:38:52;;;;;;;31.88;26.00;;;14.00;99.90;;;;;;4895459;29;20079;-86
2022/10/13 12:41:27;;;;;;;31.52;27.85;;;14.50;99.90;;;;;;4913928;29;20048;-87
2022/10/13 12:43:54;;;;;;;30.08;26.88;;;14.10;99.90;;;;;;4881379;29;20062;-88
2022/10/13 12:46:42;;;;;;;29.35;26.08;;;14.70;99.90;;;;;;4895722;29;20516;-87
2022/10/13 12:49:32;;;;;;;27.02;24.13;;;14.10;99.90;;;;;;4910815;29;20456;-86
2022/10/13 12:52:14;;;;;;;27.55;23.80;;;14.10;99.90;;;;;;4912834;29;20036;-87
2022/10/13 12:54:56;;;;;;;26.65;23.80;;;14.10;99.90;;;;;;4890806;29;20573;-88
2022/10/13 12:57:37;;;;;;;23.17;20.48;;;14.20;99.90;;;;;;4926998;28;20047;-87